createdAt,value
2022-08-24T00:01:50.653Z,6.10
2022-08-24T00:04:17.514Z,6.47
2022-08-24T00:06:44.690Z,5.20
2022-08-24T00:09:11.652Z,5.55
2022-08-24T00:11:38.444Z,5.80
2022-08-24T00:14:05.274Z,7.53
2022-08-24T00:16:32.185Z,5.85
2022-08-24T00:19:00.546Z,6.00
2022-08-24T00:21:27.484Z,5.82
2022-08-24T00:23:54.581Z,7.70
2022-08-24T00:26:28.989Z,5.80
2022-08-24T00:28:58.159Z,6.47
2022-08-24T00:31:26.313Z,7.18
2022-08-24T00:33:54.315Z,7.80
2022-08-24T00:36:21.954Z,7.05
2022-08-24T00:38:49.641Z,5.00
2022-08-24T00:41:17.968Z,5.32
2022-08-24T00:43:55.091Z,6.28
2022-08-24T00:46:37.423Z,5.75
2022-08-24T00:49:22.985Z,6.15
2022-08-24T00:52:26.277Z,5.55
2022-08-24T00:55:00.819Z,6.38
2022-08-24T00:57:33.463Z,6.85
2022-08-24T01:00:09.620Z,5.63
2022-08-24T01:02:41.994Z,5.57
2022-08-24T01:05:12.174Z,6.20
2022-08-24T01:07:40.736Z,6.45
2022-08-24T01:10:17.434Z,5.80
2022-08-24T01:12:59.998Z,6.82
2022-08-24T01:15:30.383Z,7.63
2022-08-24T01:18:16.806Z,10.60
2022-08-24T01:20:50.752Z,5.15
2022-08-24T01:23:40.474Z,5.70
2022-08-24T01:26:11.792Z,6.97
2022-08-24T01:28:43.939Z,6.18
2022-08-24T01:31:11.937Z,8.35
2022-08-24T01:33:39.284Z,6.75
2022-08-24T01:36:28.632Z,6.60
2022-08-24T01:39:00.565Z,8.90
2022-08-24T01:41:29.169Z,5.22
2022-08-24T01:43:58.533Z,5.75
2022-08-24T01:46:26.345Z,6.53
2022-08-24T01:48:53.616Z,6.82
2022-08-24T01:51:21.139Z,6.30
2022-08-24T01:53:49.200Z,6.35
2022-08-24T01:56:16.591Z,6.30
2022-08-24T01:58:48.201Z,5.10
2022-08-24T02:01:18.569Z,5.78
2022-08-24T02:03:48.425Z,5.45
2022-08-24T02:06:19.783Z,7.93
2022-08-24T02:08:46.853Z,5.45
2022-08-24T02:11:15.633Z,7.72
2022-08-24T02:13:43.025Z,8.68
2022-08-24T02:16:10.384Z,8.50
2022-08-24T02:18:40.526Z,5.72
2022-08-24T02:21:09.703Z,8.23
2022-08-24T02:23:38.803Z,6.85
2022-08-24T02:26:10.337Z,8.02
2022-08-24T02:28:39.907Z,7.47
2022-08-24T02:31:10.230Z,6.30
2022-08-24T02:33:39.016Z,5.55
2022-08-24T02:36:25.626Z,5.80
2022-08-24T02:38:56.227Z,5.53
2022-08-24T02:41:25.433Z,5.75
2022-08-24T02:43:54.397Z,6.75
2022-08-24T02:46:26.054Z,6.50
2022-08-24T02:48:57.554Z,6.85
2022-08-24T02:51:42.280Z,7.45
2022-08-24T02:54:17.846Z,6.97
2022-08-24T02:56:47.308Z,6.68
2022-08-24T02:59:16.019Z,6.82
2022-08-24T03:01:43.819Z,6.30
2022-08-24T03:04:12.595Z,7.90
2022-08-24T03:06:39.970Z,7.80
2022-08-24T03:09:07.607Z,6.40
2022-08-24T03:11:34.966Z,6.80
2022-08-24T03:14:01.872Z,6.43
2022-08-24T03:16:31.363Z,7.07
2022-08-24T03:18:59.049Z,6.68
2022-08-24T03:21:28.533Z,6.82
2022-08-24T03:23:56.726Z,6.47
2022-08-24T03:26:24.127Z,6.32
2022-08-24T03:28:51.873Z,6.05
2022-08-24T03:31:19.583Z,6.45
2022-08-24T03:33:48.599Z,6.55
2022-08-24T03:36:16.915Z,7.57
2022-08-24T03:38:44.783Z,8.55
2022-08-24T03:41:12.312Z,8.50
2022-08-24T03:43:46.496Z,7.82
2022-08-24T03:46:27.082Z,8.95
2022-08-24T03:48:56.058Z,7.50
2022-08-24T03:51:28.322Z,7.38
2022-08-24T03:53:58.794Z,8.30
2022-08-24T03:56:28.485Z,7.68
2022-08-24T03:58:56.244Z,8.63
2022-08-24T04:01:25.097Z,7.70
2022-08-24T04:03:54.237Z,7.22
2022-08-24T04:06:25.021Z,10.57
2022-08-24T04:08:53.069Z,7.68
2022-08-24T04:11:26.574Z,7.50
2022-08-24T04:13:57.701Z,10.27
2022-08-24T04:16:26.651Z,7.47
2022-08-24T04:19:03.153Z,8.00
2022-08-24T04:21:35.465Z,7.10
2022-08-24T04:24:07.212Z,5.93
2022-08-24T04:26:45.191Z,6.10
2022-08-24T04:29:16.662Z,7.10
2022-08-24T04:31:48.517Z,6.55
2022-08-24T04:34:18.323Z,5.32
2022-08-24T04:36:46.649Z,5.85
2022-08-24T04:39:14.398Z,7.45
2022-08-24T04:41:42.444Z,6.40
2022-08-24T04:44:11.292Z,6.13
2022-08-24T04:46:39.468Z,6.80
2022-08-24T04:49:08.435Z,7.10
2022-08-24T04:51:36.515Z,6.75
2022-08-24T04:54:05.229Z,6.78
2022-08-24T04:56:32.195Z,8.40
2022-08-24T04:58:59.776Z,8.73
2022-08-24T05:01:32.756Z,8.35
2022-08-24T05:04:00.791Z,6.63
2022-08-24T05:06:30.679Z,8.40
2022-08-24T05:08:58.612Z,7.35
2022-08-24T05:11:26.936Z,7.80
2022-08-24T05:13:56.461Z,9.00
2022-08-24T05:16:25.668Z,7.30
2022-08-24T05:18:55.299Z,9.43
2022-08-24T05:21:24.432Z,8.02
2022-08-24T05:23:54.599Z,13.50
2022-08-24T05:26:28.452Z,7.68
2022-08-24T05:28:59.216Z,8.00
2022-08-24T05:31:32.591Z,7.97
2022-08-24T05:34:05.380Z,8.68
2022-08-24T05:36:38.258Z,9.15
2022-08-24T05:39:13.732Z,8.60
2022-08-24T05:41:46.755Z,8.68
2022-08-24T05:44:21.420Z,8.60
2022-08-24T05:46:48.353Z,9.98
2022-08-24T05:49:15.863Z,8.68
2022-08-24T05:51:42.729Z,6.75
2022-08-24T05:54:13.658Z,8.75
2022-08-24T05:56:49.639Z,7.97
2022-08-24T05:59:17.955Z,7.30
2022-08-24T06:01:45.762Z,8.00
2022-08-24T06:04:12.883Z,6.95
2022-08-24T06:06:39.860Z,7.15
2022-08-24T06:09:07.200Z,6.70
2022-08-24T06:11:39.580Z,6.32
2022-08-24T06:14:15.290Z,6.35
2022-08-24T06:16:55.535Z,6.30
2022-08-24T06:19:24.178Z,7.72
2022-08-24T06:21:53.724Z,6.53
2022-08-24T06:24:43.258Z,6.63
2022-08-24T06:27:22.753Z,11.48
2022-08-24T06:30:01.054Z,8.98
2022-08-24T06:32:53.889Z,11.30
2022-08-24T06:35:46.774Z,11.60
2022-08-24T06:38:13.976Z,14.85
2022-08-24T06:40:42.745Z,14.35
2022-08-24T06:43:10.962Z,15.32
2022-08-24T06:45:45.382Z,19.77
2022-08-24T06:48:14.497Z,15.80
2022-08-24T06:50:41.823Z,16.83
2022-08-24T06:53:09.204Z,18.58
2022-08-24T06:55:35.979Z,17.10
2022-08-24T06:58:03.056Z,16.00
2022-08-24T07:00:31.100Z,17.50
2022-08-24T07:02:58.002Z,14.80
2022-08-24T07:05:25.466Z,19.00
2022-08-24T07:08:18.697Z,15.30
2022-08-24T07:10:46.062Z,16.17
2022-08-24T07:13:14.557Z,15.38
2022-08-24T07:15:45.522Z,19.30
2022-08-24T07:18:16.560Z,14.73
2022-08-24T07:20:48.052Z,18.35
2022-08-24T07:23:21.991Z,13.45
2022-08-24T07:26:21.020Z,18.88
2022-08-24T07:29:45.731Z,13.75
2022-08-24T07:32:05.452Z,13.23
2022-08-24T07:34:37.285Z,13.15
2022-08-24T07:37:05.476Z,14.38
2022-08-24T07:39:32.309Z,14.20
2022-08-24T07:42:12.694Z,12.98
2022-08-24T07:44:40.949Z,16.95
2022-08-24T07:47:34.236Z,11.55
2022-08-24T07:49:56.087Z,11.65
2022-08-24T07:52:22.970Z,12.75
2022-08-24T07:54:50.054Z,16.13
2022-08-24T07:57:17.240Z,15.18
2022-08-24T07:59:44.043Z,11.35
2022-08-24T08:02:11.671Z,13.95
2022-08-24T08:04:41.340Z,15.82
2022-08-24T08:07:09.255Z,10.90
2022-08-24T08:09:38.317Z,12.00
2022-08-24T08:12:06.448Z,15.13
2022-08-24T08:14:33.641Z,12.20
2022-08-24T08:17:01.225Z,12.38
2022-08-24T08:19:28.099Z,9.45
2022-08-24T08:22:13.516Z,9.18
2022-08-24T08:25:08.012Z,8.23
2022-08-24T08:27:36.191Z,9.10
2022-08-24T08:30:06.565Z,9.52
2022-08-24T08:32:34.519Z,9.18
2022-08-24T08:35:02.414Z,8.50
2022-08-24T08:37:31.145Z,10.07
2022-08-24T08:39:58.656Z,8.65
2022-08-24T08:42:59.016Z,11.85
2022-08-24T08:45:58.192Z,12.55
2022-08-24T08:49:08.355Z,11.15
2022-08-24T08:52:03.648Z,12.18
2022-08-24T08:54:51.056Z,10.02
2022-08-24T08:57:42.387Z,7.80
2022-08-24T09:00:16.631Z,9.30
2022-08-24T09:03:42.069Z,10.57
2022-08-24T09:06:50.385Z,8.15
2022-08-24T09:10:06.352Z,9.88
2022-08-24T09:13:14.909Z,8.63
2022-08-24T09:16:12.600Z,10.02
2022-08-24T09:18:59.172Z,7.47
2022-08-24T09:21:42.115Z,7.90
2022-08-24T09:24:47.184Z,5.25
2022-08-24T09:28:05.479Z,7.32
2022-08-24T09:30:54.076Z,6.82
2022-08-24T09:33:31.165Z,6.07
2022-08-24T09:36:13.971Z,6.75
2022-08-24T09:39:10.488Z,4.78
2022-08-24T09:41:52.155Z,4.00
2022-08-24T09:44:56.193Z,5.40
2022-08-24T09:48:03.548Z,5.35
2022-08-24T09:50:55.788Z,4.22
2022-08-24T09:54:19.979Z,2.97
2022-08-24T09:58:01.556Z,3.53
2022-08-24T10:00:43.887Z,2.13
2022-08-24T10:04:01.180Z,3.35
2022-08-24T10:06:51.481Z,4.30
2022-08-24T10:09:58.080Z,4.47
2022-08-24T10:12:44.020Z,4.57
2022-08-24T10:15:33.743Z,4.55
2022-08-24T10:19:05.964Z,2.97
2022-08-24T10:22:14.190Z,4.05
2022-08-24T10:25:37.328Z,3.03
2022-08-24T10:28:35.094Z,4.38
2022-08-24T10:31:12.628Z,4.45
2022-08-24T10:34:27.194Z,3.42
2022-08-24T10:37:05.459Z,3.53
2022-08-24T10:39:41.057Z,2.50
2022-08-24T10:43:10.209Z,3.92
2022-08-24T10:46:18.680Z,2.28
2022-08-24T10:49:32.856Z,4.60
2022-08-24T10:52:38.070Z,2.88
2022-08-24T10:55:21.352Z,2.88
2022-08-24T10:58:28.694Z,3.10
2022-08-24T11:00:56.351Z,4.43
2022-08-24T11:03:28.607Z,3.20
2022-08-24T11:05:57.796Z,2.05
2022-08-24T11:08:33.244Z,1.38
2022-08-24T11:11:14.175Z,1.73
2022-08-24T11:14:16.002Z,2.05
2022-08-24T11:16:47.344Z,1.67
2022-08-24T11:19:32.244Z,2.33
2022-08-24T11:22:04.687Z,3.42
2022-08-24T11:24:46.365Z,3.58
2022-08-24T11:27:35.812Z,2.15
2022-08-24T11:30:15.288Z,1.92
2022-08-24T11:32:51.072Z,1.85
2022-08-24T11:35:32.307Z,1.75
2022-08-24T11:38:20.444Z,1.30
2022-08-24T11:41:13.191Z,1.77
2022-08-24T11:44:16.607Z,2.03
2022-08-24T11:47:02.788Z,2.70
2022-08-24T11:50:14.396Z,2.72
2022-08-24T11:53:12.037Z,3.42
2022-08-24T11:56:31.413Z,2.35
2022-08-24T11:59:27.683Z,1.40
2022-08-24T12:02:04.649Z,3.55
2022-08-24T12:04:49.322Z,3.97
2022-08-24T12:07:50.996Z,3.40
2022-08-24T12:10:32.999Z,1.55
2022-08-24T12:13:48.097Z,3.38
2022-08-24T12:16:55.352Z,1.42
2022-08-24T12:19:30.012Z,1.30
2022-08-24T12:22:05.824Z,3.50
2022-08-24T12:24:43.005Z,1.27
2022-08-24T12:27:24.998Z,1.42
2022-08-24T12:30:07.263Z,3.95
2022-08-24T12:32:47.799Z,1.83
2022-08-24T12:35:28.525Z,1.35
2022-08-24T12:38:28.663Z,2.83
2022-08-24T12:41:33.692Z,1.58
2022-08-24T12:44:12.271Z,1.73
2022-08-24T12:46:43.030Z,2.22
2022-08-24T12:49:51.252Z,1.40
2022-08-24T12:52:46.066Z,1.20
2022-08-24T12:55:47.840Z,1.13
2022-08-24T12:58:56.279Z,2.22
2022-08-24T13:01:29.437Z,1.92
2022-08-24T13:04:40.519Z,1.73
2022-08-24T13:07:29.790Z,1.70
2022-08-24T13:09:56.469Z,1.77
2022-08-24T13:12:41.277Z,2.35
2022-08-24T13:15:26.063Z,3.33
2022-08-24T13:18:09.974Z,2.03
2022-08-24T13:20:37.097Z,1.42
2022-08-24T13:23:05.902Z,2.35
2022-08-24T13:25:47.676Z,1.08
2022-08-24T13:28:20.587Z,1.00
2022-08-24T13:31:31.461Z,3.88
2022-08-24T13:34:22.083Z,1.10
2022-08-24T13:37:20.273Z,1.77
2022-08-24T13:39:53.129Z,1.52
2022-08-24T13:42:43.528Z,1.67
2022-08-24T13:45:54.713Z,2.30
2022-08-24T13:48:55.695Z,1.25
2022-08-24T13:51:46.918Z,2.05
2022-08-24T13:54:48.519Z,1.52
2022-08-24T13:58:10.878Z,1.65
2022-08-24T14:01:13.817Z,1.60
2022-08-24T14:04:23.937Z,1.10
2022-08-24T14:07:03.499Z,1.95
2022-08-24T14:10:24.477Z,1.30
2022-08-24T14:13:24.527Z,5.32
2022-08-24T14:16:29.191Z,1.73
2022-08-24T14:19:41.031Z,2.05
2022-08-24T14:22:42.784Z,3.50
2022-08-24T14:25:26.925Z,1.73
2022-08-24T14:27:59.923Z,3.42
2022-08-24T14:30:26.770Z,2.10
2022-08-24T14:33:17.133Z,1.85
2022-08-24T14:36:08.348Z,2.72
2022-08-24T14:38:54.354Z,3.65
2022-08-24T14:41:52.397Z,1.33
2022-08-24T14:44:59.995Z,1.92
2022-08-24T14:48:11.979Z,4.00
2022-08-24T14:50:57.680Z,2.05
2022-08-24T14:53:56.996Z,4.13
2022-08-24T14:57:07.291Z,2.25
2022-08-24T15:00:05.358Z,1.75
2022-08-24T15:03:18.897Z,1.95
2022-08-24T15:06:27.289Z,2.80
2022-08-24T15:09:23.404Z,3.45
2022-08-24T15:12:00.699Z,1.77
2022-08-24T15:14:51.746Z,1.88
2022-08-24T15:17:25.701Z,2.65
2022-08-24T15:20:06.772Z,1.67
2022-08-24T15:22:52.106Z,5.25
2022-08-24T15:25:42.664Z,2.47
2022-08-24T15:28:32.854Z,4.38
2022-08-24T15:31:07.682Z,2.05
2022-08-24T15:33:52.092Z,1.50
2022-08-24T15:36:19.412Z,4.18
2022-08-24T15:38:46.443Z,4.05
2022-08-24T15:41:38.957Z,1.48
2022-08-24T15:44:21.335Z,1.75
2022-08-24T15:46:57.783Z,2.20
2022-08-24T15:49:35.956Z,3.75
2022-08-24T15:52:09.514Z,5.78
2022-08-24T15:54:56.346Z,6.90
2022-08-24T15:57:31.236Z,1.77
2022-08-24T16:00:38.182Z,2.38
2022-08-24T16:03:49.759Z,1.50
2022-08-24T16:06:32.512Z,3.47
2022-08-24T16:09:21.198Z,2.28
2022-08-24T16:12:00.905Z,2.08
2022-08-24T16:14:47.544Z,2.15
2022-08-24T16:17:34.704Z,1.70
2022-08-24T16:20:11.919Z,2.17
2022-08-24T16:22:58.949Z,4.93
2022-08-24T16:25:39.852Z,1.85
2022-08-24T16:28:17.838Z,2.85
2022-08-24T16:31:00.748Z,1.98
2022-08-24T16:33:33.134Z,2.45
2022-08-24T16:36:05.588Z,2.08
2022-08-24T16:38:35.223Z,2.08
2022-08-24T16:41:10.726Z,1.85
2022-08-24T16:43:41.560Z,1.83
2022-08-24T16:46:11.755Z,2.28
2022-08-24T16:48:40.068Z,1.70
2022-08-24T16:51:07.034Z,1.83
2022-08-24T16:53:33.886Z,2.15
2022-08-24T16:56:04.133Z,2.10
2022-08-24T16:58:34.752Z,1.50
2022-08-24T17:01:02.281Z,1.73
2022-08-24T17:03:29.898Z,2.30
2022-08-24T17:05:57.648Z,2.30
2022-08-24T17:08:27.443Z,2.45
2022-08-24T17:10:55.281Z,4.70
2022-08-24T17:13:46.342Z,2.83
2022-08-24T17:16:12.535Z,2.88
2022-08-24T17:18:41.410Z,2.60
2022-08-24T17:21:08.381Z,4.45
2022-08-24T17:23:40.628Z,2.15
2022-08-24T17:26:20.247Z,2.05
2022-08-24T17:28:52.518Z,1.42
2022-08-24T17:31:19.767Z,1.80
2022-08-24T17:33:46.720Z,3.50
2022-08-24T17:36:23.646Z,5.38
2022-08-24T17:38:55.848Z,3.00
2022-08-24T17:41:26.166Z,2.47
2022-08-24T17:43:54.440Z,2.42
2022-08-24T17:46:22.379Z,2.22
2022-08-24T17:48:50.336Z,4.00
2022-08-24T17:51:17.543Z,3.58
2022-08-24T17:53:44.443Z,2.38
2022-08-24T17:56:13.908Z,2.15
2022-08-24T17:59:01.475Z,1.80
2022-08-24T18:01:28.968Z,1.52
2022-08-24T18:03:56.060Z,3.20
2022-08-24T18:06:27.004Z,2.22
2022-08-24T18:08:56.724Z,1.52
2022-08-24T18:11:25.975Z,4.93
2022-08-24T18:13:54.252Z,1.67
2022-08-24T18:16:25.008Z,2.40
2022-08-24T18:18:53.519Z,2.28
2022-08-24T18:21:21.975Z,2.15
2022-08-24T18:23:50.889Z,1.58
2022-08-24T18:26:28.572Z,2.78
2022-08-24T18:29:13.533Z,2.03
2022-08-24T18:31:41.994Z,1.63
2022-08-24T18:34:19.354Z,2.67
2022-08-24T18:36:46.800Z,3.88
2022-08-24T18:39:14.285Z,1.30
2022-08-24T18:41:44.149Z,2.75
2022-08-24T18:44:20.688Z,1.73
2022-08-24T18:46:48.857Z,2.55
2022-08-24T18:49:18.100Z,2.55
2022-08-24T18:51:48.153Z,2.10
2022-08-24T18:54:22.316Z,1.48
2022-08-24T18:56:50.195Z,3.20
2022-08-24T18:59:20.307Z,7.50
2022-08-24T19:02:09.740Z,4.03
2022-08-24T19:04:45.552Z,3.88
2022-08-24T19:07:13.563Z,2.55
2022-08-24T19:09:40.353Z,3.13
2022-08-24T19:12:08.526Z,2.20
2022-08-24T19:14:36.752Z,3.75
2022-08-24T19:17:04.502Z,3.83
2022-08-24T19:19:31.259Z,3.17
2022-08-24T19:21:58.976Z,3.75
2022-08-24T19:24:28.694Z,4.22
2022-08-24T19:26:55.736Z,3.03
2022-08-24T19:29:53.900Z,2.70
2022-08-24T19:32:26.399Z,3.72
2022-08-24T19:34:54.732Z,3.72
2022-08-24T19:37:23.166Z,5.05
2022-08-24T19:39:51.030Z,4.10
2022-08-24T19:42:19.329Z,4.15
2022-08-24T19:45:04.912Z,4.18
2022-08-24T19:47:34.313Z,4.22
2022-08-24T19:50:04.291Z,4.38
2022-08-24T19:52:32.826Z,3.40
2022-08-24T19:55:00.558Z,4.15
2022-08-24T19:57:33.405Z,4.20
2022-08-24T20:00:17.226Z,5.60
2022-08-24T20:02:48.940Z,5.05
2022-08-24T20:05:19.279Z,4.18
2022-08-24T20:07:47.606Z,5.53
2022-08-24T20:10:19.750Z,3.58
2022-08-24T20:12:46.717Z,6.38
2022-08-24T20:15:15.122Z,5.97
2022-08-24T20:17:42.628Z,4.97
2022-08-24T20:20:15.704Z,5.78
2022-08-24T20:22:42.536Z,4.25
2022-08-24T20:25:09.895Z,4.93
2022-08-24T20:27:37.584Z,4.43
2022-08-24T20:30:06.734Z,4.55
2022-08-24T20:32:33.782Z,6.43
2022-08-24T20:35:01.719Z,7.03
2022-08-24T20:37:31.992Z,5.65
2022-08-24T20:40:00.171Z,7.15
2022-08-24T20:42:29.307Z,5.93
2022-08-24T20:44:56.205Z,5.60
2022-08-24T20:47:23.503Z,5.10
2022-08-24T20:49:51.002Z,4.75
2022-08-24T20:52:18.110Z,5.30
2022-08-24T20:54:44.995Z,7.70
2022-08-24T20:57:18.121Z,6.70
2022-08-24T20:59:45.936Z,6.20
2022-08-24T21:02:13.623Z,7.05
2022-08-24T21:04:40.455Z,5.63
2022-08-24T21:07:11.399Z,6.88
2022-08-24T21:09:38.623Z,5.07
2022-08-24T21:12:05.952Z,6.47
2022-08-24T21:14:32.746Z,5.30
2022-08-24T21:17:00.277Z,7.60
2022-08-24T21:19:27.338Z,6.20
2022-08-24T21:21:54.100Z,8.45
2022-08-24T21:24:20.839Z,7.05
2022-08-24T21:26:47.799Z,5.85
2022-08-24T21:29:14.686Z,5.22
2022-08-24T21:31:42.417Z,7.68
2022-08-24T21:34:28.080Z,7.25
2022-08-24T21:36:55.132Z,6.20
2022-08-24T21:39:22.003Z,5.30
2022-08-24T21:41:48.775Z,8.73
2022-08-24T21:44:16.567Z,5.35
2022-08-24T21:46:43.501Z,7.15
2022-08-24T21:49:12.125Z,7.35
2022-08-24T21:51:40.311Z,9.15
2022-08-24T21:54:07.689Z,5.43
2022-08-24T21:56:35.046Z,5.60
2022-08-24T21:59:02.992Z,6.68
2022-08-24T22:01:30.091Z,6.30
2022-08-24T22:03:58.284Z,7.78
2022-08-24T22:06:31.070Z,8.25
2022-08-24T22:08:59.963Z,5.93
2022-08-24T22:11:31.465Z,5.35
2022-08-24T22:13:58.282Z,7.20
2022-08-24T22:16:26.017Z,6.15
2022-08-24T22:18:52.831Z,7.88
2022-08-24T22:21:24.468Z,7.03
2022-08-24T22:23:51.345Z,7.88
2022-08-24T22:26:18.643Z,6.28
2022-08-24T22:28:45.464Z,6.28
2022-08-24T22:31:29.811Z,7.40
2022-08-24T22:33:59.408Z,8.60
2022-08-24T22:36:28.767Z,7.97
2022-08-24T22:38:58.187Z,6.93
2022-08-24T22:41:26.415Z,6.13
2022-08-24T22:44:13.960Z,6.35
2022-08-24T22:46:41.631Z,7.72
2022-08-24T22:49:10.004Z,8.55
2022-08-24T22:51:38.167Z,8.05
2022-08-24T22:54:05.136Z,6.47
2022-08-24T22:56:39.445Z,6.85
2022-08-24T22:59:09.119Z,7.90
2022-08-24T23:01:42.539Z,8.98
2022-08-24T23:04:15.642Z,7.78
2022-08-24T23:06:43.184Z,7.32
2022-08-24T23:09:11.053Z,6.78
2022-08-24T23:11:39.087Z,8.68
2022-08-24T23:14:07.126Z,8.80
2022-08-24T23:16:37.726Z,8.57
2022-08-24T23:19:26.178Z,7.22
2022-08-24T23:21:53.805Z,8.27
2022-08-24T23:24:21.504Z,9.00
2022-08-24T23:26:49.282Z,9.63
2022-08-24T23:29:16.973Z,8.57
2022-08-24T23:31:46.016Z,9.32
2022-08-24T23:34:13.618Z,9.32
2022-08-24T23:36:41.257Z,11.20
2022-08-24T23:39:10.708Z,7.95
2022-08-24T23:41:42.451Z,8.52
2022-08-24T23:44:17.035Z,10.27
2022-08-24T23:46:45.376Z,9.07
2022-08-24T23:49:14.817Z,10.32
2022-08-24T23:51:42.059Z,10.82
2022-08-24T23:54:10.834Z,9.40
2022-08-24T23:56:40.939Z,9.75
2022-08-24T23:59:20.296Z,9.05
